Detall de PIREP

Printer-friendly versionPDF version

[2011/06/24 07:30:00]
Flight IATA:CT1004
Pilot Number:042
Company ICAO:CAT
Aircraft Type:B75F/E
PAX:3
Departing Airport: LIEA
Destination Airport: LFMP
Alternate Airport:LFBP
Online: VATSIM
Route:GINOX UM732 NISEK UT175 DIVKO UM731 FJR/N0330F190 G39 BRUSC A27 SIJAN
Flight Level:F260
No Slew and time accel
No pause
Crash detect
Detect pilot in Cockpit between each 30 and 45 minutes
07:30 Zero fuel Weight: 181581 Lbs, Fuel Weight: 75544 Lbs
07:30 VATSIM:LIEA 240650Z 28004KT 250V340 CAVOK 24/19 Q1019
07:30 VATSIM:LFMP 240700Z 33010KT 9999 FEW033 SCT260 19/09 Q1024 NOSIG
07:30 VOICE CATALONIAN/FLAMA DEL CANIGO
07:39 Parking Brakes off
07:46 Take-off
07:46 Take off Weight: 255717 Lbs
07:46 Wind: 299 @ 006 Knots Heading: 022
07:46 POS N40 38 12 E008 17 36
07:46 Flaps:3 at 172 Knots
07:46 Gear Up: 172 Knots
07:46 Flaps:2 at 170 Knots
07:47 Flaps:1 at 208 Knots
07:47 Flaps:0 at 217 Knots
07:57 TOC
07:57 Fuel Weight: 70043 Lb
08:01 Wind:273@038 Knots Heading: 309 Ground Speed: 401 Knots Altitude 26108 ft
08:16 Wind:295@044 Knots Heading: 310 Ground Speed: 386 Knots Altitude 26148 ft
08:31 Wind:310@053 Knots Heading: 286 Ground Speed: 380 Knots Altitude 26259 ft
08:32 TOD
08:32 Fuel Weight: 64736 Lb
08:42 Flaps:1 at 235 Knots
08:46 Wind:291@004 Knots Heading: 177 Ground Speed: 235 Knots Altitude 4461 ft
08:51 Flaps:2 at 207 Knots
08:51 Flaps:3 at 202 Knots
08:52 Flaps:4 at 162 Knots
08:55 Gear Down: 150 Knots
08:55 Flaps:5 at 147 Knots
08:56 Flaps:6 at 140 Knots
09:00 TouchDown:Rate -266 ft/min Speed: 138 Knots
09:00 VATSIM:LFMP 240800Z 34012G22KT 300V010 9999 FEW040 SCT230 20/09 Q1023 NOSIG
09:00 Land
09:00 Wind:337@014 Knots
09:00 Heading: 341
09:00 Flight Duration: 01:14
09:00 Landing Weight: 242801 Lbs
09:00 POS N42 44 46 E002 52 07
09:05 Parking brakes on
09:05 Block to Block Duration: 01:26
09:05 Final Fuel: 60385 Lbls
09:05 Spent Fuel: 15158 Lbls
09:05 Flight Length: 345 NM
09:05 TOD Land Length: 62 NM

Exportar CSV

Powered by Drupal - Modified by Danger4k